createdAt,value
2023-02-18T07:39:45.597Z,18.07
2023-02-18T07:55:56.181Z,21.67
2023-02-18T08:10:08.960Z,21.43
2023-02-18T08:23:05.772Z,18.63
2023-02-18T08:35:14.424Z,17.57
2023-02-18T08:46:50.140Z,18.17
2023-02-18T08:51:44.028Z,13.53
2023-02-18T09:02:32.156Z,10.80
2023-02-18T09:12:34.713Z,15.20
2023-02-18T09:17:28.366Z,10.93
2023-02-18T09:22:22.258Z,15.23
2023-02-18T09:27:15.804Z,14.87
2023-02-18T09:32:14.522Z,12.27
2023-02-18T09:37:14.847Z,14.80
2023-02-18T09:42:12.949Z,9.23
2023-02-18T09:47:11.980Z,9.63
2023-02-18T09:52:17.870Z,6.03
2023-02-18T09:57:23.501Z,6.40
2023-02-18T10:02:20.115Z,7.37
2023-02-18T10:07:22.436Z,6.10
2023-02-18T10:12:19.885Z,6.33
2023-02-18T10:17:16.585Z,7.47
2023-02-18T10:22:15.001Z,6.03
2023-02-18T10:27:11.338Z,4.53
2023-02-18T10:32:14.080Z,4.87
2023-02-18T10:37:22.716Z,5.30
2023-02-18T10:42:29.333Z,4.13
2023-02-18T10:47:35.827Z,4.38
2023-02-18T10:52:35.085Z,6.88
2023-02-18T10:57:30.232Z,3.13
2023-02-18T11:02:27.202Z,5.43
2023-02-18T11:07:24.067Z,4.35
2023-02-18T11:12:23.228Z,6.07
2023-02-18T11:17:22.204Z,4.32
2023-02-18T11:22:20.447Z,6.00
2023-02-18T11:27:23.063Z,4.10
2023-02-18T11:32:17.285Z,6.00
2023-02-18T11:37:14.681Z,4.32
2023-02-18T11:42:08.601Z,4.03
2023-02-18T11:47:07.470Z,6.82
2023-02-18T11:52:19.585Z,7.88
2023-02-18T11:57:15.805Z,6.47
2023-02-18T12:02:29.474Z,7.68
2023-02-18T12:07:28.487Z,8.48
2023-02-18T12:12:29.057Z,14.00
2023-02-18T12:17:47.330Z,6.57
2023-02-18T12:22:46.704Z,5.95
2023-02-18T12:27:51.710Z,5.95
2023-02-18T12:32:53.613Z,7.32
2023-02-18T12:38:02.273Z,7.72
2023-02-18T12:43:01.610Z,4.80
2023-02-18T12:48:16.935Z,4.97
2023-02-18T12:53:50.283Z,4.80
2023-02-18T12:58:57.567Z,4.00
2023-02-18T13:04:24.702Z,3.97
2023-02-18T13:09:29.666Z,9.20
2023-02-18T13:14:28.655Z,7.25
2023-02-18T13:19:25.754Z,5.28
2023-02-18T13:24:26.275Z,7.47
2023-02-18T13:29:27.864Z,5.70
2023-02-18T13:34:28.948Z,6.07
2023-02-18T13:39:25.248Z,7.07
2023-02-18T13:45:06.357Z,7.18
2023-02-18T13:50:15.299Z,6.60
2023-02-18T13:55:20.690Z,7.57
2023-02-18T14:00:22.435Z,8.00
2023-02-18T14:05:25.351Z,7.35
2023-02-18T14:10:33.731Z,7.13
2023-02-18T14:16:02.105Z,7.30
2023-02-18T14:21:07.184Z,8.00
2023-02-18T14:26:07.944Z,5.68
2023-02-18T14:31:04.428Z,4.30
2023-02-18T14:36:08.029Z,3.33
2023-02-18T14:41:37.240Z,6.20
2023-02-18T14:46:41.090Z,4.53
2023-02-18T14:51:37.454Z,5.25
2023-02-18T14:56:31.255Z,3.80
2023-02-18T15:01:26.766Z,2.35
2023-02-18T15:06:25.457Z,3.78
2023-02-18T15:11:22.964Z,6.63
2023-02-18T15:16:21.560Z,5.18
2023-02-18T15:21:22.915Z,3.30
2023-02-18T15:26:19.730Z,10.75
2023-02-18T15:31:15.613Z,5.82
2023-02-18T15:36:16.895Z,4.90
2023-02-18T15:41:15.777Z,7.82
2023-02-18T15:46:16.198Z,14.32
2023-02-18T15:51:17.774Z,16.55
2023-02-18T15:56:16.687Z,37.80
2023-02-18T16:06:33.107Z,9.55
2023-02-18T16:11:28.557Z,9.43
2023-02-18T16:16:26.908Z,11.00
2023-02-18T16:21:35.247Z,13.87
2023-02-18T16:26:42.378Z,9.83
2023-02-18T16:31:36.264Z,14.03
2023-02-18T16:36:30.511Z,11.37
2023-02-18T16:41:26.397Z,12.73
2023-02-18T16:46:23.690Z,15.77
